Observation data for Hart on 08/15/2019      Previous  Date  Next       Current Mesonet Observations  Soil Data  Daily Summary Page  Observations in Plain Language
KHRS 150500Z 12007KT 23/15 A3019 RMK A01 T02300150  RH  062%=      5-min Rain = 0
KHRS 150505Z 11007KT 23/15 A302 RMK A01 T02300150  RH  062%=      5-min Rain = 0
KHRS 150510Z 11007KT 23/15 A302 RMK A01 T02290151  RH  063%=      5-min Rain = 0
KHRS 150515Z 11008G13KT 23/15 A302 RMK A01 T02290151  RH  063%=      5-min Rain = 0
KHRS 150520Z 11009KT 23/15 A302 RMK A01 T02310151  RH  062%=      5-min Rain = 0
KHRS 150525Z 11009KT 23/15 A302 RMK A01 T02320151  RH  062%=      5-min Rain = 0
KHRS 150530Z 11009KT 23/15 A302 RMK A01 T02330151  RH  061%=      5-min Rain = 0
KHRS 150535Z 11009KT 23/15 A302 RMK A01 T02340152  RH  061%=      5-min Rain = 0
KHRS 150540Z 11009G14KT 23/15 A302 RMK A01 T02340152  RH  061%=      5-min Rain = 0
KHRS 150545Z 11009KT 23/15 A302 RMK A01 T02330152  RH  062%=      5-min Rain = 0
KHRS 150550Z 11008KT 23/15 A302 RMK A01 T02320152  RH  062%=      5-min Rain = 0
KHRS 150555Z 11008KT 23/15 A3021 RMK A01 T02310152  RH  063%=      5-min Rain = 0
KHRS 150600Z 11007KT 23/15 A3021 RMK A01 T02300153  RH  063%=      5-min Rain = 0
KHRS 150605Z 12007KT 23/15 A3021 RMK A01 T02290153  RH  064%=      5-min Rain = 0
KHRS 150610Z 12007KT 23/15 A3021 RMK A01 T02280154  RH  064%=      5-min Rain = 0
KHRS 150615Z 12006KT 23/15 A3021 RMK A01 T02270154  RH  065%=      5-min Rain = 0
KHRS 150620Z 13006KT 23/16 A3021 RMK A01 T02260155  RH  066%=      5-min Rain = 0
KHRS 150625Z 13006KT 23/16 A3021 RMK A01 T02250155  RH  066%=      5-min Rain = 0
KHRS 150630Z 13006KT 22/16 A3021 RMK A01 T02240156  RH  067%=      5-min Rain = 0
KHRS 150635Z 13006KT 22/16 A3021 RMK A01 T02230155  RH  067%=      5-min Rain = 0
KHRS 150640Z 13006KT 22/16 A3021 RMK A01 T02230156  RH  068%=      5-min Rain = 0
KHRS 150645Z 13005KT 22/16 A3021 RMK A01 T02220157  RH  068%=      5-min Rain = 0
KHRS 150650Z 14004KT 22/16 A3021 RMK A01 T02230156  RH  068%=      5-min Rain = 0
KHRS 150655Z 16003KT 22/16 A3021 RMK A01 T02240156  RH  067%=      5-min Rain = 0
KHRS 150700Z 16003KT 23/16 A3022 RMK A01 T02250155  RH  066%=      5-min Rain = 0
KHRS 150705Z 14004KT 23/16 A3021 RMK A01 T02250156  RH  066%=      5-min Rain = 0
KHRS 150710Z 16004KT 22/16 A3021 RMK A01 T02240157  RH  067%=      5-min Rain = 0
KHRS 150715Z 20005KT 22/16 A3022 RMK A01 T02220158  RH  069%=      5-min Rain = 0
KHRS 150720Z 21007KT 22/16 A3022 RMK A01 T02180160  RH  071%=      5-min Rain = 0
KHRS 150725Z 23006KT 22/16 A3022 RMK A01 T02160159  RH  071%=      5-min Rain = 0
KHRS 150730Z 24005KT 22/16 A3022 RMK A01 T02150159  RH  072%=      5-min Rain = 0
KHRS 150735Z 23005KT 22/16 A3022 RMK A01 T02150158  RH  072%=      5-min Rain = 0
KHRS 150740Z 23006KT 22/16 A3022 RMK A01 T02160158  RH  071%=      5-min Rain = 0
KHRS 150745Z 22005KT 22/16 A3021 RMK A01 T02150158  RH  072%=      5-min Rain = 0
KHRS 150750Z 22005KT 21/16 A3021 RMK A01 T02130158  RH  073%=      5-min Rain = 0
KHRS 150755Z 22004KT 21/16 A3021 RMK A01 T02130159  RH  073%=      5-min Rain = 0
KHRS 150800Z 22004KT 21/16 A3021 RMK A01 T02130159  RH  073%=      5-min Rain = 0
KHRS 150805Z 20005KT 21/16 A3021 RMK A01 T02130160  RH  073%=      5-min Rain = 0
KHRS 150810Z 20006KT 21/16 A3021 RMK A01 T02130160  RH  074%=      5-min Rain = 0
KHRS 150815Z 18005KT 22/16 A3021 RMK A01 T02170160  RH  071%=      5-min Rain = 0
KHRS 150820Z 18006KT 22/16 A3021 RMK A01 T02230160  RH  069%=      5-min Rain = 0
KHRS 150825Z 17005KT 23/16 A3021 RMK A01 T02270160  RH  067%=      5-min Rain = 0
KHRS 150830Z 18005KT 23/16 A3021 RMK A01 T02290160  RH  067%=      5-min Rain = 0
KHRS 150835Z 17004KT 23/16 A3021 RMK A01 T02300160  RH  066%=      5-min Rain = 0
KHRS 150840Z 17004KT 23/16 A3021 RMK A01 T02300161  RH  067%=      5-min Rain = 0
KHRS 150845Z 17003KT 23/16 A3021 RMK A01 T02280161  RH  068%=      5-min Rain = 0
KHRS 150850Z 17003KT 23/16 A3021 RMK A01 T02250161  RH  069%=      5-min Rain = 0
KHRS 150855Z 17004KT 22/16 A302 RMK A01 T02230162  RH  070%=      5-min Rain = 0
KHRS 150900Z 17004KT 22/16 A302 RMK A01 T02220162  RH  070%=      5-min Rain = 0
KHRS 150905Z 16005KT 22/16 A302 RMK A01 T02200161  RH  071%=      5-min Rain = 0
KHRS 150910Z 16006KT 22/16 A3019 RMK A01 T02170161  RH  072%=      5-min Rain = 0
KHRS 150915Z 16006KT 22/16 A3019 RMK A01 T02160161  RH  073%=      5-min Rain = 0
KHRS 150920Z 17005KT 22/16 A3018 RMK A01 T02190162  RH  072%=      5-min Rain = 0
KHRS 150925Z 17005KT 22/16 A3018 RMK A01 T02190163  RH  072%=      5-min Rain = 0
KHRS 150930Z 16006KT 22/16 A3018 RMK A01 T02180164  RH  073%=      5-min Rain = 0
KHRS 150935Z 17007KT 22/17 A3018 RMK A01 T02180165  RH  074%=      5-min Rain = 0
KHRS 150940Z 17007G12KT 22/17 A3018 RMK A01 T02190166  RH  074%=      5-min Rain = 0
KHRS 150945Z 17007KT 22/17 A3018 RMK A01 T02210166  RH  073%=      5-min Rain = 0
KHRS 150950Z 17007KT 22/17 A3017 RMK A01 T02220167  RH  072%=      5-min Rain = 0
KHRS 150955Z 16007KT 22/17 A3017 RMK A01 T02220167  RH  073%=      5-min Rain = 0
KHRS 151000Z 16006KT 22/17 A3018 RMK A01 T02200167  RH  074%=      5-min Rain = 0
KHRS 151005Z 16006KT 22/17 A3018 RMK A01 T02180167  RH  074%=      5-min Rain = 0
KHRS 151010Z 15006KT 22/17 A3017 RMK A01 T02170167  RH  075%=      5-min Rain = 0
KHRS 151015Z 15005KT 22/17 A3017 RMK A01 T02150167  RH  076%=      5-min Rain = 0
KHRS 151020Z 15005KT 21/17 A3017 RMK A01 T02140167  RH  077%=      5-min Rain = 0
KHRS 151025Z 15004KT 21/17 A3017 RMK A01 T02120167  RH  077%=      5-min Rain = 0
KHRS 151030Z 15004KT 21/17 A3017 RMK A01 T02110167  RH  078%=      5-min Rain = 0
KHRS 151035Z 16003KT 21/17 A3017 RMK A01 T02100168  RH  079%=      5-min Rain = 0
KHRS 151040Z 17002KT 21/17 A3017 RMK A01 T02090168  RH  079%=      5-min Rain = 0
KHRS 151045Z 18001KT 21/17 A3018 RMK A01 T02080167  RH  079%=      5-min Rain = 0
KHRS 151050Z 18001KT 21/17 A3018 RMK A01 T02060167  RH  080%=      5-min Rain = 0
KHRS 151055Z 00000KT 20/17 A3018 RMK A01 T02040168  RH  082%=      5-min Rain = 0
KHRS 151100Z 17000KT 20/17 A3018 RMK A01 T02020168  RH  083%=      5-min Rain = 0
KHRS 151105Z 00000KT 20/17 A3019 RMK A01 T01990168  RH  084%=      5-min Rain = 0
KHRS 151110Z 10001KT 20/17 A3019 RMK A01 T01970166  RH  085%=      5-min Rain = 0
KHRS 151115Z 06002KT 19/17 A3019 RMK A01 T01930165  RH  086%=      5-min Rain = 0
KHRS 151120Z 06002KT 19/17 A3019 RMK A01 T01910165  RH  087%=      5-min Rain = 0
KHRS 151125Z 07002KT 19/16 A3019 RMK A01 T01890164  RH  088%=      5-min Rain = 0
KHRS 151130Z 07002KT 19/16 A3019 RMK A01 T01870163  RH  088%=      5-min Rain = 0
KHRS 151135Z 07001KT 19/16 A3018 RMK A01 T01860161  RH  088%=      5-min Rain = 0
KHRS 151140Z 00000KT 19/16 A3019 RMK A01 T01860162  RH  088%=      5-min Rain = 0
KHRS 151145Z 00000KT 19/16 A3019 RMK A01 T01870162  RH  088%=      5-min Rain = 0
KHRS 151150Z 00000KT 19/16 A3019 RMK A01 T01870163  RH  088%=      5-min Rain = 0
KHRS 151155Z 00000KT 19/17 A302 RMK A01 T01880165  RH  088%=      5-min Rain = 0
KHRS 151200Z 36001KT 19/17 A302 RMK A01 T01890166  RH  088%=      5-min Rain = 0
KHRS 151205Z 32004KT 19/17 A3021 RMK A01 T01900166  RH  088%=      5-min Rain = 0
KHRS 151210Z 32006KT 19/17 A3021 RMK A01 T01900166  RH  088%=      5-min Rain = 0
KHRS 151215Z 32005KT 19/17 A3022 RMK A01 T01900166  RH  088%=      5-min Rain = 0
KHRS 151220Z 34005KT 19/17 A3022 RMK A01 T01910165  RH  087%=      5-min Rain = 0
KHRS 151225Z 34005KT 19/16 A3021 RMK A01 T01920163  RH  085%=      5-min Rain = 0
KHRS 151230Z 33005KT 19/16 A3022 RMK A01 T01920161  RH  084%=      5-min Rain = 0
KHRS 151235Z 33005KT 19/16 A3022 RMK A01 T01920160  RH  084%=      5-min Rain = 0
KHRS 151240Z 33005KT 19/16 A3022 RMK A01 T01920160  RH  083%=      5-min Rain = 0
KHRS 151245Z 33005KT 19/16 A3022 RMK A01 T01920159  RH  083%=      5-min Rain = 0
KHRS 151250Z 33004KT 19/16 A3022 RMK A01 T01920159  RH  083%=      5-min Rain = 0
KHRS 151255Z 33003KT 19/16 A3022 RMK A01 T01930160  RH  083%=      5-min Rain = 0
KHRS 151300Z 33004KT 20/16 A3022 RMK A01 T01960162  RH  082%=      5-min Rain = 0
KHRS 151305Z 34005KT 20/16 A3023 RMK A01 T02000161  RH  080%=      5-min Rain = 0
KHRS 151310Z 35007KT 20/16 A3023 RMK A01 T02020160  RH  078%=      5-min Rain = 0
KHRS 151315Z 36007KT 21/16 A3023 RMK A01 T02060156  RH  075%=      5-min Rain = 0
KHRS 151320Z 02004KT 21/16 A3023 RMK A01 T02090157  RH  074%=      5-min Rain = 0
KHRS 151325Z 04003KT 21/16 A3022 RMK A01 T02130160  RH  073%=      5-min Rain = 0
KHRS 151330Z 04004KT 22/16 A3023 RMK A01 T02180164  RH  073%=      5-min Rain = 0
KHRS 151335Z 04006KT 22/17 A3023 RMK A01 T02220165  RH  072%=      5-min Rain = 0
KHRS 151340Z 05006KT 23/17 A3023 RMK A01 T02250165  RH  070%=      5-min Rain = 0
KHRS 151345Z 06008KT 23/17 A3023 RMK A01 T02270167  RH  071%=      5-min Rain = 0
KHRS 151350Z 08005KT 23/17 A3022 RMK A01 T02270169  RH  072%=      5-min Rain = 0
KHRS 151355Z 07006KT 23/17 A3022 RMK A01 T02290172  RH  072%=      5-min Rain = 0
KHRS 151400Z 06008KT 23/17 A3023 RMK A01 T02300174  RH  072%=      5-min Rain = 0
KHRS 151405Z 05010G16KT 23/17 A3023 RMK A01 T02330174  RH  071%=      5-min Rain = 0
KHRS 151410Z 06012G17KT 23/17 A3024 RMK A01 T02290170  RH  071%=      5-min Rain = 0
KHRS 151415Z 06011G16KT 22/17 A3024 RMK A01 T02220168  RH  073%=      5-min Rain = 0
KHRS 151420Z 07008KT 22/17 A3024 RMK A01 T02220169  RH  074%=      5-min Rain = 0
KHRS 151425Z 07009KT 23/17 A3024 RMK A01 T02300171  RH  071%=      5-min Rain = 0
KHRS 151430Z 07007KT 24/17 A3024 RMK A01 T02350174  RH  070%=      5-min Rain = 0
KHRS 151435Z 07008KT 24/17 A3023 RMK A01 T02390173  RH  068%=      5-min Rain = 0
KHRS 151440Z 07009KT 24/17 A3023 RMK A01 T02390174  RH  068%=      5-min Rain = 0
KHRS 151445Z 08010KT 24/18 A3023 RMK A01 T02390175  RH  069%=      5-min Rain = 0
KHRS 151450Z 08010KT 24/18 A3023 RMK A01 T02430176  RH  068%=      5-min Rain = 0
KHRS 151455Z 08010KT 25/18 A3023 RMK A01 T02460177  RH  067%=      5-min Rain = 0
KHRS 151500Z 08011KT 25/18 A3022 RMK A01 T02490179  RH  067%=      5-min Rain = 0
KHRS 151505Z 09012KT 25/18 A3022 RMK A01 T02490178  RH  066%=      5-min Rain = 0
KHRS 151510Z 09010G15KT 25/18 A3022 RMK A01 T02520180  RH  066%=      5-min Rain = 0
KHRS 151515Z 09011KT 26/18 A3022 RMK A01 T02570182  RH  065%=      5-min Rain = 0
KHRS 151520Z 10011KT 25/18 A3021 RMK A01 T02530179  RH  065%=      5-min Rain = 0
KHRS 151525Z 10009KT 25/18 A3021 RMK A01 T02480180  RH  067%=      5-min Rain = 0
KHRS 151530Z 09009KT 25/18 A3021 RMK A01 T02520181  RH  066%=      5-min Rain = 0
KHRS 151535Z 09009KT 26/18 A3021 RMK A01 T02580182  RH  064%=      5-min Rain = 0
KHRS 151540Z 10008KT 26/18 A302 RMK A01 T02600182  RH  064%=      5-min Rain = 0
KHRS 151545Z 11008KT 26/18 A302 RMK A01 T02640183  RH  063%=      5-min Rain = 0
KHRS 151550Z 12007KT 27/18 A302 RMK A01 T02680183  RH  061%=      5-min Rain = 0
KHRS 151555Z 12007G12KT 27/18 A302 RMK A01 T02720184  RH  060%=      5-min Rain = 0
KHRS 151600Z 14007KT 28/18 A302 RMK A01 T02750184  RH  059%=      5-min Rain = 0
KHRS 151605Z 15006G11KT 28/18 A302 RMK A01 T02780184  RH  058%=      5-min Rain = 0
KHRS 151610Z 14007KT 28/18 A3019 RMK A01 T02770184  RH  058%=      5-min Rain = 0
KHRS 151615Z 15008KT 28/19 A3019 RMK A01 T02760185  RH  059%=      5-min Rain = 0
KHRS 151620Z 17007KT 28/19 A3019 RMK A01 T02750185  RH  059%=      5-min Rain = 0
KHRS 151625Z 16007KT 28/19 A3019 RMK A01 T02790186  RH  059%=      5-min Rain = 0
KHRS 151630Z 18007KT 28/19 A3019 RMK A01 T02780185  RH  059%=      5-min Rain = 0
KHRS 151635Z 18008KT 28/19 A3019 RMK A01 T02810185  RH  057%=      5-min Rain = 0
KHRS 151640Z 17007G12KT 28/19 A3018 RMK A01 T02800185  RH  058%=      5-min Rain = 0
KHRS 151645Z 19007KT 29/19 A3018 RMK A01 T02850186  RH  056%=      5-min Rain = 0
KHRS 151650Z 18008G13KT 29/19 A3018 RMK A01 T02880185  RH  055%=      5-min Rain = 0
KHRS 151655Z 18009G14KT 29/18 A3018 RMK A01 T02870183  RH  055%=      5-min Rain = 0
KHRS 151700Z 20011KT 29/18 A3017 RMK A01 T02900183  RH  054%=      5-min Rain = 0
KHRS 151705Z 20010KT 29/18 A3017 RMK A01 T02940182  RH  052%=      5-min Rain = 0
KHRS 151710Z 20010G15KT 29/18 A3017 RMK A01 T02930182  RH  053%=      5-min Rain = 0
KHRS 151715Z 20009KT 30/18 A3017 RMK A01 T02960182  RH  052%=      5-min Rain = 0
KHRS 151720Z 19010KT 30/18 A3017 RMK A01 T03000183  RH  051%=      5-min Rain = 0
KHRS 151725Z 20011KT 30/18 A3017 RMK A01 T03000182  RH  050%=      5-min Rain = 0
KHRS 151730Z 20010KT 30/18 A3017 RMK A01 T03030181  RH  049%=      5-min Rain = 0
KHRS 151735Z 20011G17KT 30/18 A3017 RMK A01 T03040181  RH  049%=      5-min Rain = 0
KHRS 151740Z 20010KT 30/18 A3016 RMK A01 T03000181  RH  050%=      5-min Rain = 0
KHRS 151745Z 21011G16KT 31/18 A3016 RMK A01 T03050178  RH  048%=      5-min Rain = 0
KHRS 151750Z 21012KT 30/18 A3016 RMK A01 T03030177  RH  048%=      5-min Rain = 0
KHRS 151755Z 21011G16KT 31/18 A3016 RMK A01 T03050178  RH  048%=      5-min Rain = 0
KHRS 151800Z 19011G18KT 31/18 A3015 RMK A01 T03070178  RH  047%=      5-min Rain = 0
KHRS 151805Z 20011KT 31/18 A3015 RMK A01 T03100176  RH  046%=      5-min Rain = 0
KHRS 151810Z 19011G16KT 31/18 A3015 RMK A01 T03090177  RH  046%=      5-min Rain = 0
KHRS 151815Z 20010G16KT 31/18 A3014 RMK A01 T03100178  RH  047%=      5-min Rain = 0
KHRS 151820Z 20012G20KT 32/17 A3014 RMK A01 T03170173  RH  043%=      5-min Rain = 0
KHRS 151825Z 21011KT 32/17 A3014 RMK A01 T03190172  RH  043%=      5-min Rain = 0
KHRS 151830Z 19013G19KT 32/17 A3013 RMK A01 T03190171  RH  042%=      5-min Rain = 0
KHRS 151835Z 21013G20KT 32/17 A3013 RMK A01 T03180168  RH  042%=      5-min Rain = 0
KHRS 151840Z 22010G16KT 32/17 A3013 RMK A01 T03200165  RH  040%=      5-min Rain = 0
KHRS 151845Z 22013G19KT 32/17 A3012 RMK A01 T03240165  RH  039%=      5-min Rain = 0
KHRS 151850Z 21012G19KT 33/17 A3012 RMK A01 T03260165  RH  039%=      5-min Rain = 0
KHRS 151855Z 21012G17KT 33/16 A3012 RMK A01 T03300162  RH  037%=      5-min Rain = 0
KHRS 151900Z 22012G18KT 33/17 A3012 RMK A01 T03290166  RH  039%=      5-min Rain = 0
KHRS 151905Z 21011G16KT 33/16 A3012 RMK A01 T03330160  RH  036%=      5-min Rain = 0
KHRS 151910Z 20011G16KT 34/16 A3011 RMK A01 T03360160  RH  036%=      5-min Rain = 0
KHRS 151915Z 21011G16KT 34/16 A3011 RMK A01 T03360157  RH  035%=      5-min Rain = 0
KHRS 151920Z 23011G17KT 34/15 A3011 RMK A01 T03360151  RH  034%=      5-min Rain = 0
KHRS 151925Z 22010G16KT 34/15 A3011 RMK A01 T03390145  RH  032%=      5-min Rain = 0
KHRS 151930Z 23011G16KT 34/13 A3011 RMK A01 T03440133  RH  029%=      5-min Rain = 0
KHRS 151935Z 23010G15KT 34/13 A301 RMK A01 T03400125  RH  028%=      5-min Rain = 0
KHRS 151940Z 25013KT 34/13 A301 RMK A01 T03400125  RH  028%=      5-min Rain = 0
KHRS 151945Z 24010G16KT 34/13 A301 RMK A01 T03400129  RH  029%=      5-min Rain = 0
KHRS 151950Z 24012G17KT 34/13 A3009 RMK A01 T03440128  RH  028%=      5-min Rain = 0
KHRS 151955Z 23010G16KT 35/13 A3009 RMK A01 T03460132  RH  028%=      5-min Rain = 0
KHRS 152000Z 20011KT 35/13 A3009 RMK A01 T03480126  RH  027%=      5-min Rain = 0
KHRS 152005Z 23009G14KT 35/13 A3009 RMK A01 T03490128  RH  027%=      5-min Rain = 0
KHRS 152010Z 21013G18KT 35/13 A3008 RMK A01 T03480129  RH  027%=      5-min Rain = 0
KHRS 152015Z 22011G18KT 35/13 A3008 RMK A01 T03500127  RH  026%=      5-min Rain = 0
KHRS 152020Z 23011KT 35/13 A3007 RMK A01 T03500125  RH  026%=      5-min Rain = 0
KHRS 152025Z 22010G16KT 35/13 A3007 RMK A01 T03520130  RH  027%=      5-min Rain = 0
KHRS 152030Z 23009G15KT 35/13 A3007 RMK A01 T03530127  RH  026%=      5-min Rain = 0
KHRS 152035Z 23009KT 35/12 A3006 RMK A01 T03520124  RH  026%=      5-min Rain = 0
KHRS 152040Z 22009KT 35/13 A3006 RMK A01 T03530125  RH  026%=      5-min Rain = 0
KHRS 152045Z 24010G15KT 36/13 A3006 RMK A01 T03560131  RH  026%=      5-min Rain = 0
KHRS 152050Z 24010G17KT 35/13 A3006 RMK A01 T03540126  RH  026%=      5-min Rain = 0
KHRS 152055Z 23010G16KT 35/12 A3005 RMK A01 T03540123  RH  025%=      5-min Rain = 0
KHRS 152100Z 25010KT 35/13 A3005 RMK A01 T03540127  RH  026%=      5-min Rain = 0
KHRS 152105Z 26011KT 35/13 A3005 RMK A01 T03520125  RH  026%=      5-min Rain = 0
KHRS 152110Z 24010KT 35/12 A3004 RMK A01 T03510120  RH  025%=      5-min Rain = 0
KHRS 152115Z 25009KT 35/12 A3004 RMK A01 T03540120  RH  025%=      5-min Rain = 0
KHRS 152120Z 23007G14KT 36/13 A3004 RMK A01 T03550125  RH  025%=      5-min Rain = 0
KHRS 152125Z 24009KT 36/12 A3004 RMK A01 T03560123  RH  025%=      5-min Rain = 0
KHRS 152130Z 23009KT 35/12 A3004 RMK A01 T03540120  RH  025%=      5-min Rain = 0
KHRS 152135Z 25012KT 35/12 A3004 RMK A01 T03530121  RH  025%=      5-min Rain = 0
KHRS 152140Z 24008G13KT 35/12 A3003 RMK A01 T03530118  RH  025%=      5-min Rain = 0
KHRS 152145Z 24009KT 36/12 A3003 RMK A01 T03560117  RH  024%=      5-min Rain = 0
KHRS 152150Z 25008KT 36/12 A3003 RMK A01 T03560118  RH  024%=      5-min Rain = 0
KHRS 152155Z 25008G13KT 35/11 A3003 RMK A01 T03530114  RH  024%=      5-min Rain = 0
KHRS 152200Z 23007G13KT 36/12 A3003 RMK A01 T03560123  RH  025%=      5-min Rain = 0
KHRS 152205Z 26007KT 36/13 A3003 RMK A01 T03570125  RH  025%=      5-min Rain = 0
KHRS 152210Z 23008KT 36/12 A3003 RMK A01 T03580119  RH  024%=      5-min Rain = 0
KHRS 152215Z 23006KT 36/12 A3003 RMK A01 T03600124  RH  025%=      5-min Rain = 0
KHRS 152220Z 23007KT 36/12 A3002 RMK A01 T03610122  RH  024%=      5-min Rain = 0
KHRS 152225Z 20009KT 36/12 A3002 RMK A01 T03600115  RH  023%=      5-min Rain = 0
KHRS 152230Z 22008KT 36/12 A3002 RMK A01 T03610116  RH  023%=      5-min Rain = 0
KHRS 152235Z 22008KT 36/12 A3002 RMK A01 T03590117  RH  024%=      5-min Rain = 0
KHRS 152240Z 21009KT 36/12 A3002 RMK A01 T03600118  RH  024%=      5-min Rain = 0
KHRS 152245Z 21009KT 36/12 A3002 RMK A01 T03580120  RH  024%=      5-min Rain = 0
KHRS 152250Z 19009KT 36/12 A3002 RMK A01 T03610119  RH  024%=      5-min Rain = 0
KHRS 152255Z 20007KT 36/12 A3002 RMK A01 T03620119  RH  024%=      5-min Rain = 0
KHRS 152300Z 20007KT 36/11 A3002 RMK A01 T03620114  RH  023%=      5-min Rain = 0
KHRS 152305Z 23005KT 36/12 A3001 RMK A01 T03590123  RH  025%=      5-min Rain = 0
KHRS 152310Z 24007KT 36/13 A3001 RMK A01 T03570127  RH  026%=      5-min Rain = 0
KHRS 152315Z 24007KT 36/12 A3001 RMK A01 T03550124  RH  025%=      5-min Rain = 0
KHRS 152320Z 23007KT 36/12 A3001 RMK A01 T03560118  RH  024%=      5-min Rain = 0
KHRS 152325Z 23006KT 35/12 A3001 RMK A01 T03490117  RH  025%=      5-min Rain = 0
KHRS 152330Z 20007KT 35/12 A3001 RMK A01 T03450119  RH  026%=      5-min Rain = 0
KHRS 152335Z 20007G12KT 35/12 A3001 RMK A01 T03510117  RH  025%=      5-min Rain = 0
KHRS 152340Z 20010KT 35/12 A3001 RMK A01 T03520118  RH  025%=      5-min Rain = 0
KHRS 152345Z 21009KT 35/12 A3001 RMK A01 T03450117  RH  026%=      5-min Rain = 0
KHRS 152350Z 20009KT 35/12 A3001 RMK A01 T03460120  RH  026%=      5-min Rain = 0
KHRS 152355Z 21007KT 35/12 A30 RMK A01 T03480124  RH  026%=      5-min Rain = 0
KHRS 160000Z 21007KT 35/12 A30 RMK A01 T03460123  RH  027%=      5-min Rain = 0
KHRS 160005Z 20008KT 35/12 A30 RMK A01 T03460120  RH  026%=      5-min Rain = 0
KHRS 160010Z 18006KT 35/12 A30 RMK A01 T03470117  RH  025%=      5-min Rain = 0
KHRS 160015Z 17006KT 35/12 A30 RMK A01 T03480123  RH  026%=      5-min Rain = 0
KHRS 160020Z 20010G20KT 35/12 A3001 RMK A01 T03470124  RH  026%=      5-min Rain = 0
KHRS 160025Z 19016G24KT 33/15 A3002 RMK A01 T03330145  RH  033%=      5-min Rain = 0
KHRS 160030Z 19015G21KT 32/15 A3002 RMK A01 T03210154  RH  037%=      5-min Rain = 0
KHRS 160035Z 20019G27KT 31/16 A3002 RMK A01 T03100157  RH  041%=      5-min Rain = 0
KHRS 160040Z 19016G21KT 30/16 A3002 RMK A01 T02960158  RH  044%=      5-min Rain = 0
KHRS 160045Z 19017G22KT 29/16 A3002 RMK A01 T02920158  RH  045%=      5-min Rain = 0
KHRS 160050Z 18013G22KT 29/16 A3002 RMK A01 T02880158  RH  046%=      5-min Rain = 0
KHRS 160055Z 18013G19KT 29/15 A3002 RMK A01 T02870153  RH  045%=      5-min Rain = 0
KHRS 160100Z 20014KT 29/15 A3002 RMK A01 T02870152  RH  045%=      5-min Rain = 0
KHRS 160105Z 20012KT 29/16 A3002 RMK A01 T02870156  RH  046%=      5-min Rain = 0
KHRS 160110Z 20017G22KT 29/16 A3002 RMK A01 T02860160  RH  047%=      5-min Rain = 0
KHRS 160115Z 19013G19KT 28/16 A3002 RMK A01 T02820157  RH  048%=      5-min Rain = 0
KHRS 160120Z 19014KT 28/14 A3002 RMK A01 T02790143  RH  044%=      5-min Rain = 0
KHRS 160125Z 19014G19KT 28/14 A3002 RMK A01 T02790139  RH  043%=      5-min Rain = 0
KHRS 160130Z 19013KT 28/14 A3002 RMK A01 T02790144  RH  045%=      5-min Rain = 0
KHRS 160135Z 19012G17KT 28/15 A3002 RMK A01 T02790150  RH  046%=      5-min Rain = 0
KHRS 160140Z 19010KT 28/15 A3002 RMK A01 T02760152  RH  048%=      5-min Rain = 0
KHRS 160145Z 19009KT 27/16 A3002 RMK A01 T02740155  RH  049%=      5-min Rain = 0
KHRS 160150Z 19009KT 27/16 A3002 RMK A01 T02730155  RH  050%=      5-min Rain = 0
KHRS 160155Z 19009KT 27/15 A3002 RMK A01 T02720154  RH  050%=      5-min Rain = 0
KHRS 160200Z 19008KT 27/16 A3002 RMK A01 T02720155  RH  050%=      5-min Rain = 0
KHRS 160205Z 19008KT 27/16 A3002 RMK A01 T02710156  RH  050%=      5-min Rain = 0
KHRS 160210Z 19008KT 27/16 A3002 RMK A01 T02690157  RH  051%=      5-min Rain = 0
KHRS 160215Z 19008KT 27/16 A3002 RMK A01 T02670158  RH  052%=      5-min Rain = 0
KHRS 160220Z 20008KT 27/16 A3002 RMK A01 T02650157  RH  052%=      5-min Rain = 0
KHRS 160225Z 21008KT 27/16 A3002 RMK A01 T02650158  RH  053%=      5-min Rain = 0
KHRS 160230Z 20008KT 26/16 A3002 RMK A01 T02620159  RH  054%=      5-min Rain = 0
KHRS 160235Z 20008KT 26/16 A3003 RMK A01 T02600158  RH  054%=      5-min Rain = 0
KHRS 160240Z 19009KT 26/15 A3003 RMK A01 T02620154  RH  053%=      5-min Rain = 0
KHRS 160245Z 19008KT 27/15 A3003 RMK A01 T02670151  RH  050%=      5-min Rain = 0
KHRS 160250Z 18007KT 27/15 A3004 RMK A01 T02680151  RH  050%=      5-min Rain = 0
KHRS 160255Z 18007KT 27/15 A3004 RMK A01 T02690149  RH  049%=      5-min Rain = 0
KHRS 160300Z 18005KT 27/15 A3005 RMK A01 T02680148  RH  049%=      5-min Rain = 0
KHRS 160305Z 18006KT 27/15 A3005 RMK A01 T02660149  RH  049%=      5-min Rain = 0
KHRS 160310Z 18007KT 27/15 A3005 RMK A01 T02670148  RH  049%=      5-min Rain = 0
KHRS 160315Z 15008KT 27/15 A3005 RMK A01 T02660152  RH  050%=      5-min Rain = 0
KHRS 160320Z 15006KT 26/16 A3005 RMK A01 T02560161  RH  057%=      5-min Rain = 0
KHRS 160325Z 15005KT 25/16 A3005 RMK A01 T02500161  RH  059%=      5-min Rain = 0
KHRS 160330Z 15004KT 25/16 A3006 RMK A01 T02460164  RH  062%=      5-min Rain = 0
KHRS 160335Z 15004KT 24/17 A3006 RMK A01 T02420166  RH  064%=      5-min Rain = 0
KHRS 160340Z 15004KT 24/17 A3006 RMK A01 T02390166  RH  065%=      5-min Rain = 0
KHRS 160345Z 16004KT 24/17 A3007 RMK A01 T02370165  RH  065%=      5-min Rain = 0
KHRS 160350Z 15005KT 24/16 A3007 RMK A01 T02360164  RH  065%=      5-min Rain = 0
KHRS 160355Z 15005KT 24/16 A3007 RMK A01 T02360162  RH  065%=      5-min Rain = 0
KHRS 160400Z 15006KT 24/16 A3007 RMK A01 T02360159  RH  063%=      5-min Rain = 0
KHRS 160405Z 14007KT 24/16 A3007 RMK A01 T02360158  RH  063%=      5-min Rain = 0
KHRS 160410Z 12009KT 24/16 A3008 RMK A01 T02360157  RH  063%=      5-min Rain = 0
KHRS 160415Z 12012G22KT 24/16 A3008 RMK A01 T02390156  RH  061%=      5-min Rain = 0
KHRS 160420Z 13014G19KT 25/16 A3008 RMK A01 T02450155  RH  058%=      5-min Rain = 0
KHRS 160425Z 12014G19KT 25/15 A3008 RMK A01 T02500153  RH  056%=      5-min Rain = 0
KHRS 160430Z 13014G19KT 25/15 A3009 RMK A01 T02480149  RH  056%=      5-min Rain = 0
KHRS 160435Z 13014KT 25/14 A3009 RMK A01 T02460143  RH  054%=      5-min Rain = 0
KHRS 160440Z 13012G19KT 24/14 A3009 RMK A01 T02440139  RH  053%=      5-min Rain = 0
KHRS 160445Z 13011KT 24/14 A3009 RMK A01 T02420139  RH  054%=      5-min Rain = 0
KHRS 160450Z 14010G15KT 24/14 A3008 RMK A01 T02410140  RH  054%=      5-min Rain = 0
KHRS 160455Z 14009KT 24/14 A3008 RMK A01 T02400141  RH  055%=      5-min Rain = 0

Page generated in 0.0102 seconds.